createdAt,value
2022-10-23T00:01:22.175Z,100443.92
2022-10-23T00:05:31.125Z,100442.48
2022-10-23T00:09:39.592Z,100445.06
2022-10-23T00:13:48.691Z,100447.35
2022-10-23T00:17:57.075Z,100448.48
2022-10-23T00:22:04.917Z,100446.32
2022-10-23T00:26:15.970Z,100447.45
2022-10-23T00:30:24.086Z,100449.77
2022-10-23T00:34:32.224Z,100444.77
2022-10-23T00:38:41.344Z,100446.42
2022-10-23T00:42:49.410Z,100448.45
2022-10-23T00:46:57.755Z,100445.30
2022-10-23T00:51:07.083Z,100444.37
2022-10-23T00:55:15.909Z,100447.11
2022-10-23T00:59:24.202Z,100448.33
2022-10-23T01:03:32.744Z,100453.18
2022-10-23T01:07:48.963Z,100459.71
2022-10-23T01:12:03.956Z,100461.05
2022-10-23T01:16:15.732Z,100460.07
2022-10-23T01:20:32.864Z,100460.94
2022-10-23T01:24:47.080Z,100462.99
2022-10-23T01:28:58.634Z,100461.79
2022-10-23T01:33:09.987Z,100467.35
2022-10-23T01:37:26.235Z,100472.13
2022-10-23T01:41:38.149Z,100469.63
2022-10-23T01:45:49.103Z,100470.29
2022-10-23T01:49:56.833Z,100472.35
2022-10-23T01:54:06.046Z,100474.10
2022-10-23T01:58:15.393Z,100468.77
2022-10-23T02:02:24.098Z,100477.79
2022-10-23T02:06:32.246Z,100486.58
2022-10-23T02:10:46.530Z,100489.94
2022-10-23T02:14:56.648Z,100482.73
2022-10-23T02:19:11.395Z,100482.72
2022-10-23T02:23:24.614Z,100481.60
2022-10-23T02:27:37.303Z,100483.59
2022-10-23T02:31:45.510Z,100485.29
2022-10-23T02:35:53.809Z,100487.00
2022-10-23T02:40:01.836Z,100486.70
2022-10-23T02:44:21.600Z,100480.38
2022-10-23T02:48:34.467Z,100481.23
2022-10-23T02:52:55.088Z,100477.34
2022-10-23T02:57:07.138Z,100478.14
2022-10-23T03:01:18.721Z,100485.96
2022-10-23T03:05:29.769Z,100488.10
2022-10-23T03:09:38.740Z,100487.30
2022-10-23T03:13:46.841Z,100489.29
2022-10-23T03:17:55.214Z,100494.42
2022-10-23T03:22:03.121Z,100492.44
2022-10-23T03:26:11.645Z,100493.48
2022-10-23T03:30:20.089Z,100491.65
2022-10-23T03:34:28.469Z,100496.60
2022-10-23T03:38:36.076Z,100496.55
2022-10-23T03:42:43.996Z,100493.83
2022-10-23T03:46:52.192Z,100488.73
2022-10-23T03:50:59.673Z,100487.77
2022-10-23T03:55:10.132Z,100486.88
2022-10-23T03:59:19.827Z,100480.09
2022-10-23T04:03:28.372Z,100478.34
2022-10-23T04:07:36.059Z,100474.30
2022-10-23T04:11:44.252Z,100470.00
2022-10-23T04:15:56.261Z,100473.33
2022-10-23T04:20:04.055Z,100468.54
2022-10-23T04:24:12.280Z,100469.30
2022-10-23T04:28:20.180Z,100470.02
2022-10-23T04:32:28.237Z,100470.77
2022-10-23T04:36:36.271Z,100471.09
2022-10-23T04:40:43.839Z,100476.22
2022-10-23T04:44:52.264Z,100481.85
2022-10-23T04:49:00.934Z,100488.63
2022-10-23T04:53:10.089Z,100493.94
2022-10-23T04:57:19.107Z,100491.52
2022-10-23T05:01:27.268Z,100494.95
2022-10-23T05:05:36.103Z,100494.63
2022-10-23T05:09:44.232Z,100501.55
2022-10-23T05:13:52.561Z,100507.88
2022-10-23T05:18:04.793Z,100508.36
2022-10-23T05:22:13.641Z,100509.85
2022-10-23T05:26:22.757Z,100508.77
2022-10-23T05:30:33.415Z,100513.46
2022-10-23T05:34:42.215Z,100513.89
2022-10-23T05:38:50.560Z,100508.60
2022-10-23T05:42:59.010Z,100505.89
2022-10-23T05:47:07.317Z,100503.69
2022-10-23T05:51:20.467Z,100496.18
2022-10-23T05:55:29.485Z,100486.73
2022-10-23T05:59:38.438Z,100488.95
2022-10-23T06:03:46.633Z,100499.34
2022-10-23T06:07:58.462Z,100513.30
2022-10-23T06:12:07.112Z,100511.52
2022-10-23T06:16:16.195Z,100509.15
2022-10-23T06:20:26.659Z,100511.71
2022-10-23T06:24:39.125Z,100515.48
2022-10-23T06:28:48.804Z,100520.36
2022-10-23T06:33:02.056Z,100523.34
2022-10-23T06:37:12.597Z,100530.86
2022-10-23T06:41:22.360Z,100529.31
2022-10-23T06:45:30.156Z,100528.23
2022-10-23T06:49:39.414Z,100531.66
2022-10-23T06:53:48.857Z,100533.95
2022-10-23T06:57:57.321Z,100535.75
2022-10-23T07:02:05.508Z,100535.56
2022-10-23T07:06:14.158Z,100537.95
2022-10-23T07:10:23.201Z,100531.63
2022-10-23T07:14:32.681Z,100532.64
2022-10-23T07:18:40.889Z,100532.19
2022-10-23T07:22:54.650Z,100534.02
2022-10-23T07:27:02.422Z,100530.42
2022-10-23T07:31:10.895Z,100534.41
2022-10-23T07:35:19.731Z,100538.48
2022-10-23T07:39:27.923Z,100530.48
2022-10-23T07:43:36.416Z,100530.52
2022-10-23T07:47:44.788Z,100529.13
2022-10-23T07:51:54.512Z,100531.58
2022-10-23T07:56:03.608Z,100532.83
2022-10-23T08:00:14.201Z,100533.48
2022-10-23T08:04:22.338Z,100543.55
2022-10-23T08:08:29.975Z,100548.53
2022-10-23T08:12:38.407Z,100551.48
2022-10-23T08:16:49.529Z,100549.11
2022-10-23T08:21:01.346Z,100549.71
2022-10-23T08:25:11.723Z,100544.10
2022-10-23T08:29:20.067Z,100543.40
2022-10-23T08:33:29.343Z,100541.76
2022-10-23T08:37:37.864Z,100544.06
2022-10-23T08:41:50.424Z,100549.69
2022-10-23T08:46:00.458Z,100553.10
2022-10-23T08:50:13.258Z,100558.34
2022-10-23T08:54:23.381Z,100554.16
2022-10-23T08:58:38.763Z,100555.17
2022-10-23T09:02:49.261Z,100562.27
2022-10-23T09:07:02.352Z,100566.70
2022-10-23T09:11:16.188Z,100563.42
2022-10-23T09:15:30.668Z,100563.45
2022-10-23T09:19:39.094Z,100556.98
2022-10-23T09:23:47.606Z,100556.60
2022-10-23T09:28:00.156Z,100551.43
2022-10-23T09:32:11.103Z,100556.25
2022-10-23T09:36:26.274Z,100553.45
2022-10-23T09:40:39.961Z,100554.66
2022-10-23T09:44:54.384Z,100556.80
2022-10-23T09:49:05.031Z,100549.40
2022-10-23T09:53:19.690Z,100546.61
2022-10-23T09:57:31.005Z,100544.83
2022-10-23T10:01:49.829Z,100546.39
2022-10-23T10:06:00.834Z,100545.15
2022-10-23T10:10:17.892Z,100540.64
2022-10-23T10:14:52.379Z,100538.45
2022-10-23T10:19:07.851Z,100540.14
2022-10-23T10:23:23.902Z,100538.20
2022-10-23T10:27:51.111Z,100530.90
2022-10-23T10:32:07.883Z,100527.84
2022-10-23T10:36:28.953Z,100519.45
2022-10-23T10:40:40.252Z,100513.77
2022-10-23T10:45:05.125Z,100506.56
2022-10-23T10:49:17.340Z,100502.92
2022-10-23T10:53:30.346Z,100501.05
2022-10-23T10:57:42.713Z,100495.63
2022-10-23T11:01:54.257Z,100487.56
2022-10-23T11:06:04.420Z,100479.52
2022-10-23T11:10:20.184Z,100473.71
2022-10-23T11:14:29.756Z,100474.42
2022-10-23T11:18:40.844Z,100474.26
2022-10-23T11:22:53.231Z,100474.69
2022-10-23T11:27:18.749Z,100474.60
2022-10-23T11:31:35.279Z,100478.35
2022-10-23T11:35:58.623Z,100473.10
2022-10-23T11:40:19.815Z,100463.09
2022-10-23T11:44:42.037Z,100455.95
2022-10-23T11:48:49.942Z,100452.52
2022-10-23T11:53:15.031Z,100443.88
2022-10-23T11:57:24.566Z,100434.48
2022-10-23T12:01:41.408Z,100428.89
2022-10-23T12:05:49.714Z,100420.89
2022-10-23T12:09:59.799Z,100418.03
2022-10-23T12:14:09.258Z,100403.05
2022-10-23T12:18:19.554Z,100391.17
2022-10-23T12:27:03.958Z,100385.55
2022-10-23T12:31:24.246Z,100375.02
2022-10-23T12:35:49.700Z,100369.98
2022-10-23T12:39:59.186Z,100368.23
2022-10-23T12:44:08.744Z,100361.95
2022-10-23T12:48:23.238Z,100357.15
2022-10-23T12:52:33.417Z,100354.25
2022-10-23T12:56:43.635Z,100354.55
2022-10-23T13:01:02.951Z,100349.07
2022-10-23T13:05:14.183Z,100344.55
2022-10-23T13:09:27.264Z,100339.21
2022-10-23T13:13:35.281Z,100336.05
2022-10-23T13:17:45.809Z,100334.94
2022-10-23T13:21:53.854Z,100320.30
2022-10-23T13:26:03.095Z,100318.50
2022-10-23T13:30:31.284Z,100320.01
2022-10-23T13:34:39.852Z,100323.94
2022-10-23T13:38:49.892Z,100319.84
2022-10-23T13:42:59.135Z,100317.73
2022-10-23T13:47:07.020Z,100316.93
2022-10-23T13:51:17.570Z,100320.08
2022-10-23T13:55:27.175Z,100318.51
2022-10-23T13:59:35.480Z,100315.20
2022-10-23T14:03:43.553Z,100314.27
2022-10-23T14:07:52.756Z,100316.48
2022-10-23T14:12:00.549Z,100314.05
2022-10-23T14:16:11.603Z,100307.90
2022-10-23T14:20:21.436Z,100305.77
2022-10-23T14:24:31.381Z,100304.89
2022-10-23T14:28:39.728Z,100302.97
2022-10-23T14:32:48.029Z,100303.77
2022-10-23T14:37:07.787Z,100298.63
2022-10-23T14:41:18.675Z,100296.98
2022-10-23T14:45:27.732Z,100287.89
2022-10-23T14:49:35.953Z,100283.17
2022-10-23T14:53:44.200Z,100281.44
2022-10-23T14:57:56.073Z,100274.54
2022-10-23T15:02:04.099Z,100271.56
2022-10-23T15:06:16.051Z,100269.30
2022-10-23T15:10:25.981Z,100269.96
2022-10-23T15:14:33.819Z,100273.59
2022-10-23T15:18:42.112Z,100273.58
2022-10-23T15:22:49.659Z,100273.33
2022-10-23T15:27:00.415Z,100271.06
2022-10-23T15:31:27.531Z,100268.23
2022-10-23T15:35:37.003Z,100267.86
2022-10-23T15:39:48.007Z,100267.95
2022-10-23T15:44:00.359Z,100273.39
2022-10-23T15:48:10.131Z,100276.04
2022-10-23T15:52:17.851Z,100282.27
2022-10-23T15:56:26.261Z,100281.44
2022-10-23T16:00:36.715Z,100284.42
2022-10-23T16:04:46.230Z,100288.24
2022-10-23T16:08:55.315Z,100290.93
2022-10-23T16:13:02.896Z,100284.77
2022-10-23T16:17:11.131Z,100296.98
2022-10-23T16:21:22.463Z,100295.66
2022-10-23T16:29:45.034Z,100296.77
2022-10-23T16:33:53.889Z,100287.95
2022-10-23T16:38:01.969Z,100279.44
2022-10-23T16:42:10.068Z,100271.52
2022-10-23T16:46:20.023Z,100278.34
2022-10-23T16:50:27.556Z,100273.14
2022-10-23T16:54:35.718Z,100274.48
2022-10-23T16:58:43.924Z,100264.05
2022-10-23T17:02:53.145Z,100261.46
2022-10-23T17:07:01.310Z,100259.33
2022-10-23T17:11:13.528Z,100255.98
2022-10-23T17:15:24.071Z,100249.88
2022-10-23T17:19:44.251Z,100252.87
2022-10-23T17:23:53.966Z,100261.93
2022-10-23T17:28:02.067Z,100268.16
2022-10-23T17:32:10.508Z,100268.73
2022-10-23T17:36:19.779Z,100269.44
2022-10-23T17:40:31.493Z,100269.41
2022-10-23T17:44:39.438Z,100256.16
2022-10-23T17:48:47.609Z,100242.27
2022-10-23T17:52:55.314Z,100227.52
2022-10-23T17:57:03.101Z,100217.68
2022-10-23T18:01:13.080Z,100217.86
2022-10-23T18:05:22.264Z,100214.84
2022-10-23T18:09:30.973Z,100221.73
2022-10-23T18:13:40.205Z,100216.28
2022-10-23T18:17:47.979Z,100213.77
2022-10-23T18:21:56.658Z,100218.95
2022-10-23T18:26:06.634Z,100211.25
2022-10-23T18:30:17.592Z,100204.68
2022-10-23T18:34:29.439Z,100209.50
2022-10-23T18:38:37.905Z,100205.10
2022-10-23T18:42:46.392Z,100204.13
2022-10-23T18:46:55.591Z,100198.85
2022-10-23T18:51:04.547Z,100186.09
2022-10-23T18:55:15.284Z,100184.41
2022-10-23T18:59:27.696Z,100177.99
2022-10-23T19:03:36.839Z,100172.64
2022-10-23T19:07:47.532Z,100169.20
2022-10-23T19:11:55.858Z,100160.98
2022-10-23T19:16:05.498Z,100157.52
2022-10-23T19:20:15.729Z,100162.58
2022-10-23T19:24:26.032Z,100165.34
2022-10-23T19:28:37.640Z,100159.47
2022-10-23T19:32:49.829Z,100155.98
2022-10-23T19:36:59.142Z,100156.30
2022-10-23T19:41:07.508Z,100153.91
2022-10-23T19:45:19.768Z,100137.02
2022-10-23T19:49:27.595Z,100129.34
2022-10-23T19:53:37.246Z,100123.46
2022-10-23T19:57:46.779Z,100133.14
2022-10-23T20:01:56.434Z,100141.49
2022-10-23T20:06:04.268Z,100132.30
2022-10-23T20:10:13.129Z,100132.27
2022-10-23T20:14:21.359Z,100125.67
2022-10-23T20:18:30.177Z,100116.98
2022-10-23T20:22:40.622Z,100100.01
2022-10-23T20:26:53.859Z,100097.14
2022-10-23T20:31:03.432Z,100093.54
2022-10-23T20:35:13.087Z,100085.91
2022-10-23T20:39:22.338Z,100085.39
2022-10-23T20:43:32.354Z,100092.31
2022-10-23T20:47:42.442Z,100092.71
2022-10-23T20:51:55.216Z,100094.52
2022-10-23T20:56:05.408Z,100098.02
2022-10-23T21:00:15.605Z,100090.96
2022-10-23T21:04:25.498Z,100080.99
2022-10-23T21:08:33.286Z,100082.34
2022-10-23T21:12:41.342Z,100097.84
2022-10-23T21:16:49.782Z,100091.66
2022-10-23T21:20:58.366Z,100081.46
2022-10-23T21:25:07.637Z,100069.30
2022-10-23T21:29:19.716Z,100052.89
2022-10-23T21:33:29.566Z,100058.87
2022-10-23T21:37:37.611Z,100057.89
2022-10-23T21:41:45.625Z,100050.20
2022-10-23T21:45:56.752Z,100038.40
2022-10-23T21:50:07.874Z,100035.27
2022-10-23T21:54:16.392Z,100023.11
2022-10-23T21:58:24.333Z,100019.33
2022-10-23T22:02:32.192Z,100015.92
2022-10-23T22:06:42.037Z,100014.82
2022-10-23T22:10:50.694Z,100009.47
2022-10-23T22:14:58.615Z,100003.17
2022-10-23T22:19:07.058Z,100006.04
2022-10-23T22:23:14.563Z,99999.54
2022-10-23T22:27:23.573Z,99989.45
2022-10-23T22:31:33.359Z,99984.02
2022-10-23T22:35:41.174Z,99980.66
2022-10-23T22:39:49.630Z,99977.80
2022-10-23T22:44:01.665Z,99991.56
2022-10-23T22:48:10.081Z,99997.15
2022-10-23T22:52:18.302Z,100006.59
2022-10-23T22:56:29.974Z,100010.16
2022-10-23T23:00:41.280Z,99998.45
2022-10-23T23:04:52.021Z,99995.16
2022-10-23T23:09:00.361Z,100010.00
2022-10-23T23:13:09.132Z,100013.27
2022-10-23T23:17:17.162Z,100014.39
2022-10-23T23:21:25.688Z,100018.32
2022-10-23T23:25:33.646Z,100017.14
2022-10-23T23:29:44.231Z,100003.73
2022-10-23T23:33:52.143Z,99996.13
2022-10-23T23:38:00.085Z,100003.30
2022-10-23T23:42:08.380Z,100006.78
2022-10-23T23:46:16.619Z,100022.16
2022-10-23T23:50:25.134Z,100023.12
2022-10-23T23:54:33.510Z,100030.98
2022-10-23T23:58:41.510Z,100047.10
